createdAt,value
2017-07-14T00:00:07.941Z,1009.75
2017-07-14T00:01:07.935Z,1009.75
2017-07-14T00:02:07.915Z,1009.76
2017-07-14T00:03:07.903Z,1009.76
2017-07-14T00:04:07.890Z,1009.77
2017-07-14T00:05:07.879Z,1009.75
2017-07-14T00:06:07.863Z,1009.77
2017-07-14T00:07:07.850Z,1009.75
2017-07-14T00:08:07.841Z,1009.74
2017-07-14T00:09:07.823Z,1009.74
2017-07-14T00:10:07.810Z,1009.73
2017-07-14T00:11:07.800Z,1009.7
2017-07-14T00:12:07.785Z,1009.71
2017-07-14T00:13:07.801Z,1009.71
2017-07-14T00:14:07.758Z,1009.7
2017-07-14T00:15:07.744Z,1009.69
2017-07-14T00:16:07.732Z,1009.69
2017-07-14T00:17:07.717Z,1009.69
2017-07-14T00:18:07.707Z,1009.67
2017-07-14T00:19:07.694Z,1009.64
2017-07-14T00:20:07.679Z,1009.63
2017-07-14T00:21:07.664Z,1009.64
2017-07-14T00:22:07.651Z,1009.62
2017-07-14T00:23:07.640Z,1009.59
2017-07-14T00:24:07.625Z,1009.58
2017-07-14T00:25:07.613Z,1009.58
2017-07-14T00:26:07.599Z,1009.57
2017-07-14T00:27:07.589Z,1009.54
2017-07-14T00:28:07.578Z,1009.51
2017-07-14T00:29:07.559Z,1009.55
2017-07-14T00:30:07.546Z,1009.52
2017-07-14T00:31:07.532Z,1009.51
2017-07-14T00:32:07.521Z,1009.5
2017-07-14T00:33:07.507Z,1009.45
2017-07-14T00:34:07.496Z,1009.48
2017-07-14T00:35:07.478Z,1009.49
2017-07-14T00:36:07.466Z,1009.47
2017-07-14T00:37:07.456Z,1009.47
2017-07-14T00:38:07.440Z,1009.47
2017-07-14T00:39:07.427Z,1009.41
2017-07-14T00:40:07.413Z,1009.43
2017-07-14T00:41:07.400Z,1009.37
2017-07-14T00:42:07.386Z,1009.39
2017-07-14T00:43:07.373Z,1009.4
2017-07-14T00:44:07.360Z,1009.39
2017-07-14T00:45:07.349Z,1009.41
2017-07-14T00:46:07.349Z,1009.38
2017-07-14T00:47:07.320Z,1009.38
2017-07-14T00:48:07.307Z,1009.36
2017-07-14T00:49:07.293Z,1009.35
2017-07-14T00:50:07.281Z,1009.38
2017-07-14T00:51:07.267Z,1009.4
2017-07-14T00:52:07.254Z,1009.34
2017-07-14T00:53:07.239Z,1009.32
2017-07-14T00:54:07.227Z,1009.32
2017-07-14T00:55:07.213Z,1009.31
2017-07-14T00:56:07.200Z,1009.3
2017-07-14T00:57:07.187Z,1009.32
2017-07-14T00:58:07.203Z,1009.31
2017-07-14T00:59:07.160Z,1009.3
2017-07-14T01:00:07.145Z,1009.26
2017-07-14T01:01:07.133Z,1009.28
2017-07-14T01:02:07.120Z,1009.26
2017-07-14T01:03:07.106Z,1009.26
2017-07-14T01:04:07.094Z,1009.25
2017-07-14T01:05:07.079Z,1009.26
2017-07-14T01:06:07.066Z,1009.24
2017-07-14T01:07:07.056Z,1009.22
2017-07-14T01:08:07.038Z,1009.21
2017-07-14T01:09:07.026Z,1009.22
2017-07-14T01:10:07.015Z,1009.19
2017-07-14T01:11:06.999Z,1009.19
2017-07-14T01:12:06.985Z,1009.17
2017-07-14T01:13:06.973Z,1009.18
2017-07-14T01:14:06.961Z,1009.16
2017-07-14T01:15:06.945Z,1009.15
2017-07-14T01:16:06.932Z,1009.09
2017-07-14T01:17:06.918Z,1009.06
2017-07-14T01:18:06.904Z,1009.06
2017-07-14T01:19:06.894Z,1009.05
2017-07-14T01:20:06.879Z,1009.06
2017-07-14T01:21:06.864Z,1009.03
2017-07-14T01:22:06.850Z,1009.03
2017-07-14T01:23:06.836Z,1009.02
2017-07-14T01:24:06.824Z,1009.04
2017-07-14T01:25:06.812Z,1009.01
2017-07-14T01:26:06.797Z,1008.98
2017-07-14T01:27:06.782Z,1008.98
2017-07-14T01:28:06.772Z,1008.98
2017-07-14T01:29:06.756Z,1008.94
2017-07-14T01:30:06.741Z,1008.97
2017-07-14T01:31:06.728Z,1008.89
2017-07-14T01:32:06.715Z,1008.9
2017-07-14T01:33:06.703Z,1008.83
2017-07-14T01:34:06.688Z,1008.87
2017-07-14T01:35:06.674Z,1008.86
2017-07-14T01:36:06.662Z,1008.87
2017-07-14T01:37:06.652Z,1008.89
2017-07-14T01:38:06.633Z,1008.84
2017-07-14T01:39:06.622Z,1008.81
2017-07-14T01:40:06.607Z,1008.81
2017-07-14T01:41:06.593Z,1008.82
2017-07-14T01:42:06.580Z,1008.8
2017-07-14T01:43:06.566Z,1008.77
2017-07-14T01:44:06.552Z,1008.77
2017-07-14T01:45:06.538Z,1008.79
2017-07-14T01:46:06.525Z,1008.75
2017-07-14T01:47:06.512Z,1008.75
2017-07-14T01:48:06.498Z,1008.76
2017-07-14T01:49:06.487Z,1008.74
2017-07-14T01:50:06.473Z,1008.71
2017-07-14T01:51:06.458Z,1008.65
2017-07-14T01:52:06.444Z,1008.66
2017-07-14T01:53:06.432Z,1008.66
2017-07-14T01:54:06.418Z,1008.64
2017-07-14T01:55:06.403Z,1008.61
2017-07-14T01:56:06.390Z,1008.62
2017-07-14T01:57:06.377Z,1008.63
2017-07-14T01:58:06.364Z,1008.61
2017-07-14T01:59:06.349Z,1008.66
2017-07-14T02:00:06.336Z,1008.66
2017-07-14T02:01:06.326Z,1008.63
2017-07-14T02:02:06.311Z,1008.64
2017-07-14T02:03:06.297Z,1008.65
2017-07-14T02:04:06.283Z,1008.6
2017-07-14T02:05:06.269Z,1008.57
2017-07-14T02:08:57.994Z,1008.58
2017-07-14T02:09:57.978Z,1008.57
2017-07-14T02:10:57.967Z,1008.56
2017-07-14T02:11:57.952Z,1008.55
2017-07-14T02:12:57.938Z,1008.52
2017-07-14T02:13:57.925Z,1008.49
2017-07-14T02:14:57.913Z,1008.49
2017-07-14T02:15:57.897Z,1008.48
2017-07-14T02:16:57.884Z,1008.44
2017-07-14T02:17:57.870Z,1008.4
2017-07-14T02:18:57.858Z,1008.43
2017-07-14T02:19:57.844Z,1008.4
2017-07-14T02:20:57.831Z,1008.39
2017-07-14T02:21:57.816Z,1008.41
2017-07-14T02:22:57.805Z,1008.39
2017-07-14T02:23:57.789Z,1008.38
2017-07-14T02:24:57.776Z,1008.4
2017-07-14T02:25:57.762Z,1008.37
2017-07-14T02:26:57.748Z,1008.37
2017-07-14T02:27:57.735Z,1008.41
2017-07-14T02:28:57.720Z,1008.4
2017-07-14T02:29:57.708Z,1008.38
2017-07-14T02:30:57.694Z,1008.4
2017-07-14T02:31:57.681Z,1008.42
2017-07-14T02:32:57.669Z,1008.35
2017-07-14T02:33:57.653Z,1008.4
2017-07-14T02:34:57.639Z,1008.41
2017-07-14T02:35:57.626Z,1008.35
2017-07-14T02:36:57.613Z,1008.42
2017-07-14T02:37:57.600Z,1008.39
2017-07-14T02:38:57.585Z,1008.41
2017-07-14T02:39:57.572Z,1008.39
2017-07-14T02:40:57.558Z,1008.41
2017-07-14T02:41:57.543Z,1008.42
2017-07-14T02:42:57.530Z,1008.41
2017-07-14T02:43:57.517Z,1008.43
2017-07-14T02:44:57.503Z,1008.41
2017-07-14T02:45:57.490Z,1008.43
2017-07-14T02:46:57.475Z,1008.41
2017-07-14T02:47:57.462Z,1008.37
2017-07-14T02:48:57.447Z,1008.38
2017-07-14T02:49:57.435Z,1008.4
2017-07-14T02:50:57.423Z,1008.43
2017-07-14T02:51:57.406Z,1008.47
2017-07-14T02:52:57.395Z,1008.45
2017-07-14T02:53:57.378Z,1008.46
2017-07-14T02:54:57.365Z,1008.46
2017-07-14T02:55:57.354Z,1008.46
2017-07-14T02:56:57.342Z,1008.46
2017-07-14T02:57:57.323Z,1008.47
2017-07-14T02:58:57.310Z,1008.46
2017-07-14T02:59:57.301Z,1008.49
2017-07-14T03:00:57.283Z,1008.49
2017-07-14T03:01:57.268Z,1008.5
2017-07-14T03:02:57.255Z,1008.53
2017-07-14T03:03:57.241Z,1008.49
2017-07-14T03:04:57.226Z,1008.48
2017-07-14T03:05:57.213Z,1008.46
2017-07-14T03:06:57.202Z,1008.41
2017-07-14T03:07:57.183Z,1008.41
2017-07-14T03:08:57.170Z,1008.35
2017-07-14T03:09:57.157Z,1008.33
2017-07-14T03:10:57.142Z,1008.32
2017-07-14T03:11:57.130Z,1008.3
2017-07-14T03:12:57.116Z,1008.27
2017-07-14T03:13:57.101Z,1008.28
2017-07-14T03:14:57.087Z,1008.27
2017-07-14T03:15:57.074Z,1008.27
2017-07-14T03:16:57.059Z,1008.26
2017-07-14T03:17:57.046Z,1008.21
2017-07-14T03:18:57.032Z,1008.19
2017-07-14T03:19:57.018Z,1008.16
2017-07-14T03:20:57.005Z,1008.14
2017-07-14T03:21:56.990Z,1008.18
2017-07-14T03:22:56.976Z,1008.16
2017-07-14T03:23:56.962Z,1008.2
2017-07-14T03:24:56.948Z,1008.22
2017-07-14T03:25:56.933Z,1008.23
2017-07-14T03:26:56.928Z,1008.27
2017-07-14T03:27:56.915Z,1008.29
2017-07-14T03:28:56.891Z,1008.29
2017-07-14T03:29:56.905Z,1008.31
2017-07-14T03:30:56.863Z,1008.35
2017-07-14T03:31:56.849Z,1008.36
2017-07-14T03:32:56.834Z,1008.35
2017-07-14T03:33:56.820Z,1008.38
2017-07-14T03:34:56.809Z,1008.41
2017-07-14T03:35:56.795Z,1008.39
2017-07-14T03:36:56.778Z,1008.4
2017-07-14T03:37:56.764Z,1008.38
2017-07-14T03:38:56.751Z,1008.36
2017-07-14T03:39:56.737Z,1008.36
2017-07-14T03:40:56.721Z,1008.37
2017-07-14T03:41:56.707Z,1008.33
2017-07-14T03:42:56.693Z,1008.31
2017-07-14T03:43:56.678Z,1008.32
2017-07-14T03:44:56.664Z,1008.32
2017-07-14T03:45:56.650Z,1008.31
2017-07-14T03:46:56.639Z,1008.29
2017-07-14T03:47:56.621Z,1008.3
2017-07-14T03:48:56.608Z,1008.33
2017-07-14T03:49:56.592Z,1008.31
2017-07-14T03:50:56.581Z,1008.35
2017-07-14T03:51:56.565Z,1008.33
2017-07-14T03:52:56.550Z,1008.32
2017-07-14T03:53:56.536Z,1008.32
2017-07-14T03:54:56.522Z,1008.28
2017-07-14T03:55:56.508Z,1008.32
2017-07-14T03:56:56.493Z,1008.33
2017-07-14T03:57:56.479Z,1008.31
2017-07-14T03:58:56.463Z,1008.32
2017-07-14T03:59:56.450Z,1008.33
2017-07-14T04:00:56.436Z,1008.32
2017-07-14T04:01:56.423Z,1008.32
2017-07-14T04:02:56.407Z,1008.31
2017-07-14T04:03:56.393Z,1008.37
2017-07-14T04:04:56.378Z,1008.34
2017-07-14T04:05:56.364Z,1008.31
2017-07-14T04:06:56.550Z,1008.3
2017-07-14T04:07:56.336Z,1008.3
2017-07-14T04:08:56.321Z,1008.26
2017-07-14T04:09:56.307Z,1008.26
2017-07-14T04:10:56.301Z,1008.24
2017-07-14T04:11:56.279Z,1008.22
2017-07-14T04:12:56.262Z,1008.24
2017-07-14T04:13:56.248Z,1008.2
2017-07-14T04:14:56.233Z,1008.24
2017-07-14T04:15:56.224Z,1008.29
2017-07-14T04:16:56.204Z,1008.22
2017-07-14T04:17:56.190Z,1008.27
2017-07-14T04:18:56.175Z,1008.24
2017-07-14T04:19:56.161Z,1008.25
2017-07-14T04:20:56.146Z,1008.23
2017-07-14T04:21:56.132Z,1008.25
2017-07-14T04:22:56.118Z,1008.29
2017-07-14T04:23:56.103Z,1008.28
2017-07-14T04:24:56.089Z,1008.25
2017-07-14T04:25:56.074Z,1008.25
2017-07-14T04:26:56.085Z,1008.26
2017-07-14T04:27:56.045Z,1008.27
2017-07-14T04:28:56.031Z,1008.26
2017-07-14T04:29:56.017Z,1008.28
2017-07-14T04:30:56.003Z,1008.3
2017-07-14T04:31:55.986Z,1008.35
2017-07-14T04:32:55.974Z,1008.36
2017-07-14T04:33:55.960Z,1008.38
2017-07-14T04:34:55.946Z,1008.36
2017-07-14T04:35:55.931Z,1008.33
2017-07-14T04:36:55.918Z,1008.32
2017-07-14T04:37:55.903Z,1008.36
2017-07-14T04:38:55.887Z,1008.34
2017-07-14T04:39:55.873Z,1008.32
2017-07-14T04:40:55.858Z,1008.29
2017-07-14T04:41:55.846Z,1008.33
2017-07-14T04:42:55.829Z,1008.3
2017-07-14T04:43:55.816Z,1008.29
2017-07-14T04:44:55.803Z,1008.3
2017-07-14T04:45:55.787Z,1008.24
2017-07-14T04:46:55.775Z,1008.26
2017-07-14T04:47:55.759Z,1008.26
2017-07-14T04:48:55.745Z,1008.27
2017-07-14T04:49:55.730Z,1008.27
2017-07-14T04:50:55.716Z,1008.27
2017-07-14T04:51:55.701Z,1008.23
2017-07-14T04:52:55.688Z,1008.25
2017-07-14T04:53:55.674Z,1008.28
2017-07-14T04:54:55.661Z,1008.24
2017-07-14T04:55:55.646Z,1008.27
2017-07-14T04:56:55.631Z,1008.22
2017-07-14T04:57:55.618Z,1008.25
2017-07-14T04:58:55.604Z,1008.27
2017-07-14T04:59:55.590Z,1008.25
2017-07-14T05:00:55.576Z,1008.27
2017-07-14T05:01:55.563Z,1008.24
2017-07-14T05:02:55.547Z,1008.22
2017-07-14T05:03:55.532Z,1008.23
2017-07-14T05:04:55.519Z,1008.22
2017-07-14T05:05:55.508Z,1008.21
2017-07-14T05:06:55.493Z,1008.24
2017-07-14T05:07:55.478Z,1008.21
2017-07-14T05:08:55.465Z,1008.2
2017-07-14T05:09:55.450Z,1008.2
2017-07-14T05:10:55.436Z,1008.18
2017-07-14T05:11:55.422Z,1008.18
2017-07-14T05:12:55.408Z,1008.16
2017-07-14T05:13:55.394Z,1008.17
2017-07-14T05:14:55.380Z,1008.2
2017-07-14T05:15:55.368Z,1008.19
2017-07-14T05:16:55.360Z,1008.2
2017-07-14T05:17:55.340Z,1008.21
2017-07-14T05:18:55.326Z,1008.23
2017-07-14T05:19:55.311Z,1008.26
2017-07-14T05:20:55.304Z,1008.28
2017-07-14T05:21:55.286Z,1008.17
2017-07-14T05:22:55.270Z,1008.18
2017-07-14T05:23:55.257Z,1008.17
2017-07-14T05:24:55.244Z,1008.2
2017-07-14T05:25:55.230Z,1008.18
2017-07-14T05:26:55.217Z,1008.19
2017-07-14T05:27:55.206Z,1008.18
2017-07-14T05:28:55.191Z,1008.15
2017-07-14T05:29:55.177Z,1008.15
2017-07-14T05:30:55.164Z,1008.11
2017-07-14T05:31:55.151Z,1008.1
2017-07-14T05:32:55.139Z,1008.12
2017-07-14T05:33:55.124Z,1008.12
2017-07-14T05:34:55.111Z,1008.13
2017-07-14T05:35:55.097Z,1008.13
2017-07-14T05:36:55.084Z,1008.13
2017-07-14T05:37:55.070Z,1008.14
2017-07-14T05:38:55.059Z,1008.1
2017-07-14T05:39:55.045Z,1008.1
2017-07-14T05:40:55.031Z,1008.1
2017-07-14T05:41:55.021Z,1008.12
2017-07-14T05:42:55.005Z,1008.12
2017-07-14T05:43:54.993Z,1008.11
2017-07-14T05:44:54.982Z,1008.13
2017-07-14T05:45:54.968Z,1008.13
2017-07-14T05:46:54.955Z,1008.14
2017-07-14T05:47:54.944Z,1008.16
2017-07-14T05:48:54.929Z,1008.15
2017-07-14T05:49:54.916Z,1008.14
2017-07-14T05:50:54.905Z,1008.16
2017-07-14T05:51:54.891Z,1008.12
2017-07-14T05:52:54.878Z,1008.1
2017-07-14T05:53:54.866Z,1008.1
2017-07-14T05:54:54.854Z,1008.08
2017-07-14T05:55:54.844Z,1008.04
2017-07-14T05:56:54.829Z,1008.02
2017-07-14T05:57:54.815Z,1008.03
2017-07-14T05:58:54.806Z,1008.06
2017-07-14T05:59:54.793Z,1008.02
2017-07-14T06:00:54.779Z,1008.03
2017-07-14T06:01:54.766Z,1008.05
2017-07-14T06:02:54.753Z,1008.06
2017-07-14T06:03:54.740Z,1008.06
2017-07-14T06:04:54.750Z,1008.05
2017-07-14T06:05:54.716Z,1008.03
2017-07-14T06:06:54.906Z,1008.04
2017-07-14T06:07:54.690Z,1008.03
2017-07-14T06:08:54.679Z,1008.04
2017-07-14T06:09:54.666Z,1008.04
2017-07-14T06:10:54.655Z,1008.08
2017-07-14T06:11:54.643Z,1008.08
2017-07-14T06:12:54.630Z,1008.05
2017-07-14T06:13:54.617Z,1008.06
2017-07-14T06:14:54.606Z,1008.09
2017-07-14T06:15:54.597Z,1008.07
2017-07-14T06:16:54.582Z,1008.06
2017-07-14T06:17:54.570Z,1008.12
2017-07-14T06:18:54.560Z,1008.14
2017-07-14T06:19:54.546Z,1008.17
2017-07-14T06:20:54.534Z,1008.2
2017-07-14T06:21:54.533Z,1008.21
2017-07-14T06:22:54.511Z,1008.2
2017-07-14T06:23:54.502Z,1008.17
2017-07-14T06:24:54.491Z,1008.11
2017-07-14T06:25:54.478Z,1008.06
2017-07-14T06:26:54.467Z,1008.09
2017-07-14T06:27:54.458Z,1008.08
2017-07-14T06:28:54.447Z,1008.07
2017-07-14T06:29:54.436Z,1008.08
2017-07-14T06:30:54.427Z,1008.08
2017-07-14T06:31:54.415Z,1008.06
2017-07-14T06:32:54.405Z,1008.11
2017-07-14T06:33:54.393Z,1008.11
2017-07-14T06:34:54.382Z,1008.1
2017-07-14T06:35:54.371Z,1008.1
2017-07-14T06:36:54.362Z,1008.08
2017-07-14T06:37:54.349Z,1008.09
2017-07-14T06:38:54.340Z,1008.08
2017-07-14T06:39:54.356Z,1008.08
2017-07-14T06:40:54.316Z,1008.07
2017-07-14T06:41:54.306Z,1008.07
2017-07-14T06:42:54.295Z,1008.08
2017-07-14T06:43:54.283Z,1008.03
2017-07-14T06:44:54.272Z,1008.06
2017-07-14T06:45:54.262Z,1008.03
2017-07-14T06:46:54.251Z,1008.02
2017-07-14T06:47:54.241Z,1008.05
2017-07-14T06:48:54.228Z,1008.03
2017-07-14T06:49:54.216Z,1007.99
2017-07-14T06:50:54.205Z,1007.99
2017-07-14T06:51:54.195Z,1008.01
2017-07-14T06:52:54.188Z,1008
2017-07-14T06:53:54.172Z,1008
2017-07-14T06:54:54.164Z,1008.01
2017-07-14T06:55:54.154Z,1008.03
2017-07-14T06:56:54.140Z,1008.06
2017-07-14T06:57:54.128Z,1008.03
2017-07-14T06:58:54.117Z,1008.02
2017-07-14T06:59:54.126Z,1008
2017-07-14T07:00:54.094Z,1008
2017-07-14T07:01:54.087Z,1008
2017-07-14T07:02:54.072Z,1007.98
2017-07-14T07:03:54.061Z,1007.98
2017-07-14T07:04:54.053Z,1008.04
2017-07-14T07:05:54.039Z,1007.97
2017-07-14T07:06:54.028Z,1007.93
2017-07-14T07:07:54.017Z,1007.95
2017-07-14T07:08:54.006Z,1007.98
2017-07-14T07:09:53.994Z,1007.94
2017-07-14T07:10:53.984Z,1007.94
2017-07-14T07:11:53.974Z,1007.94
2017-07-14T07:12:53.963Z,1007.94
2017-07-14T07:13:53.952Z,1007.95
2017-07-14T07:14:53.941Z,1007.96
2017-07-14T07:15:53.934Z,1007.97
2017-07-14T07:16:53.925Z,1007.92
2017-07-14T07:17:53.909Z,1007.92
2017-07-14T07:18:53.914Z,1007.94
2017-07-14T07:19:53.889Z,1007.91
2017-07-14T07:20:53.879Z,1007.94
2017-07-14T07:21:53.869Z,1007.93
2017-07-14T07:22:53.855Z,1007.97
2017-07-14T07:23:53.846Z,1007.97
2017-07-14T07:24:53.836Z,1007.96
2017-07-14T07:25:53.828Z,1007.95
2017-07-14T07:26:53.815Z,1007.97
2017-07-14T07:27:53.805Z,1007.96
2017-07-14T07:28:53.797Z,1007.99
2017-07-14T07:29:53.794Z,1008
2017-07-14T07:30:53.781Z,1007.97
2017-07-14T07:31:53.767Z,1007.99
2017-07-14T07:32:53.754Z,1008.01
2017-07-14T07:33:53.744Z,1008.15
2017-07-14T07:34:53.736Z,1008.31
2017-07-14T07:35:53.724Z,1008.27
2017-07-14T07:36:53.715Z,1008.26
2017-07-14T07:37:53.706Z,1008.2
2017-07-14T07:38:53.696Z,1008.22
2017-07-14T07:39:53.688Z,1008.37
2017-07-14T07:40:53.685Z,1008.37
2017-07-14T07:41:53.673Z,1008.35
2017-07-14T07:42:53.665Z,1008.28
2017-07-14T07:43:53.659Z,1008.38
2017-07-14T07:44:53.650Z,1008.44
2017-07-14T07:45:53.644Z,1008.41
2017-07-14T07:46:53.642Z,1008.39
2017-07-14T07:47:53.633Z,1008.41
2017-07-14T07:48:53.626Z,1008.42
2017-07-14T07:49:53.621Z,1008.46
2017-07-14T07:50:53.618Z,1008.46
2017-07-14T07:51:53.611Z,1008.37
2017-07-14T07:52:53.606Z,1008.46
2017-07-14T07:53:53.603Z,1008.47
2017-07-14T07:54:53.600Z,1008.48
2017-07-14T07:55:53.594Z,1008.47
2017-07-14T07:56:53.590Z,1008.45
2017-07-14T07:57:53.588Z,1008.45
2017-07-14T07:58:53.583Z,1008.49
2017-07-14T07:59:53.596Z,1008.5
2017-07-14T08:00:53.579Z,1008.49
2017-07-14T08:01:53.574Z,1008.5
2017-07-14T08:02:53.575Z,1008.51
2017-07-14T08:03:53.570Z,1008.5
2017-07-14T08:04:53.569Z,1008.44
2017-07-14T08:05:53.568Z,1008.5
2017-07-14T08:06:53.766Z,1008.5
2017-07-14T08:07:53.565Z,1008.51
2017-07-14T08:08:53.560Z,1008.51
2017-07-14T08:09:53.559Z,1008.53
2017-07-14T08:10:53.558Z,1008.45
2017-07-14T08:11:53.555Z,1008.46
2017-07-14T08:12:53.555Z,1008.44
2017-07-14T08:13:53.552Z,1008.47
2017-07-14T08:14:53.552Z,1008.46
2017-07-14T08:15:53.550Z,1008.52
2017-07-14T08:16:53.551Z,1008.44
2017-07-14T08:17:53.548Z,1008.41
2017-07-14T08:18:53.548Z,1008.41
2017-07-14T08:19:53.547Z,1008.43
2017-07-14T08:20:53.547Z,1008.41
2017-07-14T08:21:53.544Z,1008.43
2017-07-14T08:22:53.545Z,1008.47
2017-07-14T08:23:53.543Z,1008.42
2017-07-14T08:24:53.543Z,1008.42
2017-07-14T08:25:53.547Z,1008.41
2017-07-14T08:26:53.545Z,1008.42
2017-07-14T08:27:53.542Z,1008.37
2017-07-14T08:28:53.544Z,1008.41
2017-07-14T08:29:53.544Z,1008.41
2017-07-14T08:30:53.544Z,1008.35
2017-07-14T08:31:53.543Z,1008.29
2017-07-14T08:32:53.546Z,1008.24
2017-07-14T08:33:53.543Z,1008.31
2017-07-14T08:34:53.545Z,1008.09
2017-07-14T08:35:53.544Z,1008.07
2017-07-14T08:36:53.546Z,1008.16
2017-07-14T08:37:53.544Z,1008.23
2017-07-14T08:38:53.545Z,1008.21
2017-07-14T08:39:53.543Z,1008.26
2017-07-14T08:40:53.543Z,1008.54
2017-07-14T08:41:53.545Z,1008.43
2017-07-14T08:42:53.543Z,1008.42
2017-07-14T08:43:53.541Z,1008.38
2017-07-14T08:44:53.542Z,1008.46
2017-07-14T08:45:53.542Z,1008.3
2017-07-14T08:46:53.539Z,1008.35
2017-07-14T08:47:53.540Z,1008.28
2017-07-14T08:48:53.540Z,1008.18
2017-07-14T08:49:53.539Z,1008.19
2017-07-14T08:50:53.537Z,1008.1
2017-07-14T08:51:53.537Z,1008.08
2017-07-14T08:52:53.537Z,1008.08
2017-07-14T08:53:53.536Z,1008.09
2017-07-14T08:54:53.534Z,1008
2017-07-14T08:55:53.533Z,1008.04
2017-07-14T08:56:53.534Z,1008.03
2017-07-14T08:57:53.528Z,1008.01
2017-07-14T08:58:53.527Z,1008.22
2017-07-14T08:59:53.526Z,1008.05
2017-07-14T09:00:53.526Z,1007.98
2017-07-14T09:01:53.519Z,1008.03
2017-07-14T09:02:53.519Z,1007.95
2017-07-14T09:03:53.517Z,1007.89
2017-07-14T09:04:53.513Z,1007.86
2017-07-14T09:05:53.510Z,1007.88
2017-07-14T09:06:53.506Z,1007.96
2017-07-14T09:07:53.505Z,1007.93
2017-07-14T09:08:53.502Z,1007.9
2017-07-14T09:09:53.496Z,1007.91
2017-07-14T09:10:53.493Z,1007.93
2017-07-14T09:11:53.491Z,1007.85
2017-07-14T09:12:53.485Z,1007.99
2017-07-14T09:13:53.482Z,1008.37
2017-07-14T09:14:53.483Z,1008.33
2017-07-14T09:15:53.475Z,1008.18
2017-07-14T09:16:53.471Z,1008.18
2017-07-14T09:17:53.468Z,1008.11
2017-07-14T09:18:53.464Z,1008.15
2017-07-14T09:19:53.461Z,1008.39
2017-07-14T09:20:53.458Z,1008.59
2017-07-14T09:21:53.455Z,1008.29
2017-07-14T09:22:53.502Z,1008.58
2017-07-14T09:23:53.448Z,1008.61
2017-07-14T09:24:53.447Z,1008.2
2017-07-14T09:25:53.444Z,1008.52
2017-07-14T09:26:53.441Z,1008.44
2017-07-14T09:27:53.441Z,1008.51
2017-07-14T09:28:53.439Z,1008.47
2017-07-14T09:29:53.441Z,1008.14
2017-07-14T09:30:53.438Z,1008.52
2017-07-14T09:31:53.459Z,1008.06
2017-07-14T09:32:53.432Z,1008.35
2017-07-14T09:33:53.431Z,1007.97
2017-07-14T09:34:53.496Z,1008.3
2017-07-14T09:35:53.429Z,1008.1
2017-07-14T09:36:53.428Z,1008.19
2017-07-14T09:37:53.426Z,1007.98
2017-07-14T09:38:53.425Z,1007.92
2017-07-14T09:39:53.424Z,1007.83
2017-07-14T09:40:53.422Z,1007.88
2017-07-14T09:41:53.420Z,1007.94
2017-07-14T09:42:53.419Z,1007.98
2017-07-14T09:43:53.417Z,1007.95
2017-07-14T09:44:53.416Z,1008.02
2017-07-14T09:45:53.412Z,1007.91
2017-07-14T09:46:53.410Z,1007.96
2017-07-14T09:47:53.411Z,1007.89
2017-07-14T09:48:53.403Z,1007.93
2017-07-14T09:49:53.402Z,1007.91
2017-07-14T09:50:53.397Z,1007.86
2017-07-14T09:51:53.396Z,1007.88
2017-07-14T09:52:53.392Z,1007.87
2017-07-14T09:53:53.389Z,1007.86
2017-07-14T09:54:53.386Z,1007.84
2017-07-14T09:55:53.385Z,1007.89
2017-07-14T09:56:53.381Z,1007.83
2017-07-14T09:57:53.377Z,1007.85
2017-07-14T09:58:53.375Z,1007.9
2017-07-14T09:59:53.373Z,1007.93
2017-07-14T10:00:53.367Z,1007.88
2017-07-14T10:01:53.364Z,1007.82
2017-07-14T10:02:53.357Z,1007.82
2017-07-14T10:03:53.356Z,1007.83
2017-07-14T10:04:53.361Z,1007.85
2017-07-14T10:05:53.346Z,1007.91
2017-07-14T10:06:53.555Z,1007.86
2017-07-14T10:07:53.339Z,1007.88
2017-07-14T10:08:53.336Z,1007.92
2017-07-14T10:09:53.333Z,1007.8
2017-07-14T10:10:53.330Z,1007.82
2017-07-14T10:11:53.325Z,1007.82
2017-07-14T10:12:53.322Z,1007.8
2017-07-14T10:13:53.328Z,1007.78
2017-07-14T10:14:53.324Z,1007.79
2017-07-14T10:15:53.318Z,1007.79
2017-07-14T10:16:53.311Z,1007.8
2017-07-14T10:17:53.307Z,1007.8
2017-07-14T10:18:53.297Z,1007.83
2017-07-14T10:19:53.300Z,1007.82
2017-07-14T10:20:53.296Z,1007.81
2017-07-14T10:21:53.291Z,1007.76
2017-07-14T10:22:53.280Z,1007.77
2017-07-14T10:23:53.279Z,1007.77
2017-07-14T10:24:53.280Z,1007.78
2017-07-14T10:25:53.269Z,1007.76
2017-07-14T10:26:53.264Z,1007.71
2017-07-14T10:27:53.260Z,1007.7
2017-07-14T10:28:53.256Z,1007.71
2017-07-14T10:29:53.251Z,1007.71
2017-07-14T10:30:53.247Z,1007.74
2017-07-14T10:31:53.242Z,1007.79
2017-07-14T10:32:53.240Z,1007.84
2017-07-14T10:33:53.235Z,1007.83
2017-07-14T10:34:53.229Z,1007.77
2017-07-14T10:35:53.225Z,1007.69
2017-07-14T10:36:53.221Z,1007.75
2017-07-14T10:37:53.215Z,1007.72
2017-07-14T10:38:53.210Z,1007.71
2017-07-14T10:39:53.209Z,1007.78
2017-07-14T10:40:53.199Z,1007.72
2017-07-14T10:41:53.195Z,1007.82
2017-07-14T10:42:53.191Z,1007.82
2017-07-14T10:43:53.186Z,1007.82
2017-07-14T10:44:53.182Z,1007.87
2017-07-14T10:45:53.183Z,1007.96
2017-07-14T10:46:53.173Z,1007.85
2017-07-14T10:47:53.167Z,1007.78
2017-07-14T10:48:53.161Z,1007.75
2017-07-14T10:49:53.160Z,1007.72
2017-07-14T10:50:53.157Z,1007.78
2017-07-14T10:51:53.150Z,1007.71
2017-07-14T10:52:53.146Z,1007.7
2017-07-14T10:53:53.139Z,1007.7
2017-07-14T10:54:53.140Z,1007.73
2017-07-14T10:55:53.128Z,1007.73
2017-07-14T10:56:53.127Z,1007.69
2017-07-14T10:57:53.122Z,1007.79
2017-07-14T10:58:53.115Z,1007.74
2017-07-14T10:59:53.113Z,1007.78
2017-07-14T11:00:53.114Z,1007.77
2017-07-14T11:01:53.102Z,1007.72
2017-07-14T11:02:53.097Z,1007.73
2017-07-14T11:03:53.094Z,1007.74
2017-07-14T11:04:53.091Z,1007.74
2017-07-14T11:05:53.083Z,1007.78
2017-07-14T11:06:53.081Z,1007.81
2017-07-14T11:07:53.077Z,1007.78
2017-07-14T11:08:53.071Z,1007.79
2017-07-14T11:09:53.068Z,1007.76
2017-07-14T11:10:53.063Z,1007.8
2017-07-14T11:11:53.079Z,1007.79
2017-07-14T11:12:53.055Z,1007.81
2017-07-14T11:13:53.053Z,1007.77
2017-07-14T11:14:53.052Z,1007.84
2017-07-14T11:15:53.044Z,1007.83
2017-07-14T11:16:53.040Z,1007.79
2017-07-14T11:17:53.035Z,1007.76
2017-07-14T11:18:53.031Z,1007.81
2017-07-14T11:19:53.028Z,1007.74
2017-07-14T11:20:53.023Z,1007.73
2017-07-14T11:21:53.021Z,1007.74
2017-07-14T11:22:53.014Z,1007.72
2017-07-14T11:23:53.011Z,1007.71
2017-07-14T11:24:53.003Z,1007.68
2017-07-14T11:25:53.005Z,1007.68
2017-07-14T11:26:53.001Z,1007.64
2017-07-14T11:27:52.991Z,1007.6
2017-07-14T11:28:52.987Z,1007.71
2017-07-14T11:29:52.984Z,1007.68
2017-07-14T11:30:52.977Z,1007.72
2017-07-14T11:31:52.975Z,1007.7
2017-07-14T11:32:52.967Z,1007.67
2017-07-14T11:33:52.963Z,1007.69
2017-07-14T11:34:52.958Z,1007.71
2017-07-14T11:35:52.952Z,1007.71
2017-07-14T11:36:52.950Z,1007.71
2017-07-14T11:37:52.945Z,1007.71
2017-07-14T11:38:52.937Z,1007.72
2017-07-14T11:39:52.933Z,1007.75
2017-07-14T11:40:52.929Z,1007.75
2017-07-14T11:41:52.923Z,1007.67
2017-07-14T11:42:52.919Z,1007.7
2017-07-14T11:43:52.913Z,1007.7
2017-07-14T11:44:52.910Z,1007.68
2017-07-14T11:45:52.902Z,1007.67
2017-07-14T11:46:52.901Z,1007.71
2017-07-14T11:47:52.891Z,1007.66
2017-07-14T11:48:52.886Z,1007.7
2017-07-14T11:49:52.880Z,1007.67
2017-07-14T11:50:52.875Z,1007.71
2017-07-14T11:51:52.870Z,1007.7
2017-07-14T11:52:52.866Z,1007.71
2017-07-14T11:53:52.860Z,1007.7
2017-07-14T11:54:52.855Z,1007.71
2017-07-14T11:55:52.848Z,1007.7
2017-07-14T11:56:52.842Z,1007.7
2017-07-14T11:57:52.837Z,1007.69
2017-07-14T11:58:52.833Z,1007.64
2017-07-14T11:59:52.827Z,1007.64
2017-07-14T12:00:52.820Z,1007.66
2017-07-14T12:01:52.815Z,1007.68
2017-07-14T12:02:52.809Z,1007.64
2017-07-14T12:03:52.803Z,1007.65
2017-07-14T12:04:52.800Z,1007.65
2017-07-14T12:05:52.791Z,1007.65
2017-07-14T12:06:52.990Z,1007.69
2017-07-14T12:07:52.779Z,1007.7
2017-07-14T12:08:52.776Z,1007.63
2017-07-14T12:09:52.769Z,1007.63
2017-07-14T12:10:52.765Z,1007.64